Time;durP1;ratioP1;P1;durP2;ratioP2;P2;SDS_P1;SDS_P2;PMS_P1;PMS_P2;Temp;Humidity;BMP_temperature;BMP_pressure;BME280_temperature;BME280_humidity;BME280_pressure;Samples;Min_cycle;Max_cycle;Signal;HPM_P1;HPM_P2
2022/01/29 00:00:37;;;;;;;72.07;29.27;;;;;;;5.05;100.00;102911.78;5053448;28;20024;-42
2022/01/29 00:03:03;;;;;;;73.32;29.90;;;;;;;5.05;100.00;102911.78;5053437;28;20029;-44
2022/01/29 00:05:28;;;;;;;78.07;31.95;;;;;;;5.07;100.00;102898.47;5050494;28;20060;-43
2022/01/29 00:07:54;;;;;;;79.43;33.05;;;;;;;5.09;100.00;102881.59;5054277;28;20028;-45
2022/01/29 00:10:19;;;;;;;71.53;29.98;;;;;;;5.10;100.00;102903.63;5053263;28;20342;-42
2022/01/29 00:12:44;;;;;;;75.35;30.45;;;;;;;5.12;100.00;102886.69;5042667;28;20025;-44
2022/01/29 00:15:11;;;;;;;85.20;33.10;;;;;;;5.13;100.00;102896.38;5051698;28;20032;-45
2022/01/29 00:17:36;;;;;;;75.45;30.63;;;;;;;5.14;100.00;102886.63;5053786;28;20064;-46
2022/01/29 00:20:02;;;;;;;81.40;30.98;;;;;;;5.16;100.00;102885.63;5036335;28;20080;-47
2022/01/29 00:22:27;;;;;;;84.07;35.97;;;;;;;5.17;100.00;102879.38;5052885;28;20108;-44
2022/01/29 00:24:52;;;;;;;79.78;31.38;;;;;;;5.17;100.00;102879.38;5035013;28;20058;-43
2022/01/29 00:27:20;;;;;;;84.90;32.13;;;;;;;5.17;100.00;102874.09;5052908;28;20012;-46
2022/01/29 00:29:45;;;;;;;75.57;30.27;;;;;;;5.22;100.00;102865.91;5053107;28;20518;-44
2022/01/29 00:32:12;;;;;;;82.13;32.60;;;;;;;5.22;100.00;102861.47;5053367;28;20168;-43
2022/01/29 00:34:38;;;;;;;75.38;31.75;;;;;;;5.25;100.00;102865.78;5053620;28;20029;-46
2022/01/29 00:37:04;;;;;;;74.38;30.20;;;;;;;5.26;100.00;102863.97;5053463;28;20080;-45
2022/01/29 00:39:30;;;;;;;74.22;29.88;;;;;;;5.26;100.00;102869.28;5045547;28;20104;-44
2022/01/29 00:41:55;;;;;;;70.00;29.45;;;;;;;5.27;100.00;102871.84;5052767;28;20032;-43
2022/01/29 00:44:21;;;;;;;76.57;33.72;;;;;;;5.25;100.00;102876.38;5052950;28;20025;-42
2022/01/29 00:46:46;;;;;;;64.63;29.08;;;;;;;5.27;100.00;102858.59;5042983;28;20040;-42
2022/01/29 00:49:12;;;;;;;77.30;30.92;;;;;;;5.28;100.00;102859.44;5052534;28;20085;-43
2022/01/29 00:51:38;;;;;;;78.82;31.35;;;;;;;5.23;100.00;102847.31;5053348;28;20028;-43
2022/01/29 00:54:03;;;;;;;75.57;30.58;;;;;;;5.29;100.00;102851.44;5053390;28;20032;-42
2022/01/29 00:56:29;;;;;;;77.57;32.60;;;;;;;5.28;100.00;102844.44;5037384;28;20016;-44
2022/01/29 00:58:54;;;;;;;83.78;32.35;;;;;;;5.27;100.00;102834.75;5056705;28;20059;-42
2022/01/29 01:01:20;;;;;;;79.65;32.53;;;;;;;5.24;100.00;102832.25;5040678;28;20373;-43
2022/01/29 01:03:45;;;;;;;70.82;30.88;;;;;;;5.26;100.00;102834.84;5057120;28;20296;-43
2022/01/29 01:06:10;;;;;;;77.50;33.13;;;;;;;5.27;100.00;102824.16;5053561;28;20104;-46
2022/01/29 01:08:36;;;;;;;70.72;30.42;;;;;;;5.26;100.00;102819.81;5057303;28;20027;-43
2022/01/29 01:11:03;;;;;;;76.95;32.65;;;;;;;5.25;100.00;102810.16;5055855;28;20035;-46
2022/01/29 01:13:29;;;;;;;78.60;31.50;;;;;;;5.24;100.00;102805.78;5057404;28;20115;-47
2022/01/29 01:15:54;;;;;;;74.20;31.42;;;;;;;5.22;100.00;102802.34;5056290;28;20107;-43
2022/01/29 01:18:19;;;;;;;81.90;35.67;;;;;;;5.22;100.00;102797.03;5056359;28;20546;-42
2022/01/29 01:20:45;;;;;;;76.53;35.50;;;;;;;5.23;100.00;102777.59;5056271;28;20077;-45
2022/01/29 01:23:10;;;;;;;84.65;34.70;;;;;;;5.23;100.00;102782.88;5056877;28;20021;-47
2022/01/29 01:25:35;;;;;;;94.88;35.63;;;;;;;5.23;100.00;102783.72;5056175;28;20107;-43
2022/01/29 01:28:00;;;;;;;74.95;31.92;;;;;;;5.20;100.00;102780.38;5055840;28;20112;-46
2022/01/29 01:30:26;;;;;;;78.88;31.70;;;;;;;5.16;100.00;102771.75;5055901;28;20028;-45
2022/01/29 01:32:51;;;;;;;91.53;36.40;;;;;;;5.18;100.00;102759.28;5056643;28;20077;-44
2022/01/29 01:35:25;;;;;;;88.90;35.45;;;;;;;5.20;100.00;102762.69;5057266;28;20408;-47
2022/01/29 01:40:34;;;;;;;80.28;33.80;;;;;;;5.20;100.00;102761.84;5057005;28;20534;-44
2022/01/29 01:43:01;;;;;;;85.10;34.30;;;;;;;5.15;100.00;102753.28;5055710;28;20028;-46
2022/01/29 01:45:27;;;;;;;84.55;34.95;;;;;;;5.16;100.00;102747.91;5055346;28;20344;-43
2022/01/29 01:47:53;;;;;;;88.13;36.40;;;;;;;5.15;100.00;102748.81;5056273;28;20020;-44
2022/01/29 01:50:18;;;;;;;90.63;34.40;;;;;;;5.11;100.00;102734.03;5056518;28;20035;-42
2022/01/29 01:52:43;;;;;;;89.40;33.70;;;;;;;5.07;100.00;102742.22;5055508;28;20096;-43
2022/01/29 01:55:09;;;;;;;82.15;30.73;;;;;;;5.04;100.00;102737.91;5055650;28;20025;-47
2022/01/29 01:57:34;;;;;;;92.03;36.70;;;;;;;4.97;100.00;102740.03;5055770;28;20025;-45
2022/01/29 02:00:00;;;;;;;93.15;35.90;;;;;;;4.95;100.00;102739.25;5037571;28;20095;-44
2022/01/29 02:02:25;;;;;;;96.53;40.40;;;;;;;4.93;100.00;102730.53;5055814;28;20024;-43
2022/01/29 02:04:50;;;;;;;98.82;37.20;;;;;;;4.91;100.00;102718.31;5056167;28;20435;-47
2022/01/29 02:07:18;;;;;;;103.65;42.80;;;;;;;4.91;100.00;102728.91;5054171;28;20079;-46
2022/01/29 02:09:43;;;;;;;93.88;36.30;;;;;;;4.91;100.00;102720.97;5057044;28;20480;-47
2022/01/29 02:12:10;;;;;;;97.65;37.35;;;;;;;4.89;100.00;102730.75;5054931;28;20060;-43
2022/01/29 02:14:36;;;;;;;95.05;36.50;;;;;;;4.88;100.00;102721.97;5055461;28;20114;-45
2022/01/29 02:17:03;;;;;;;98.72;41.15;;;;;;;4.87;100.00;102717.59;5055239;28;20035;-45
2022/01/29 02:19:28;;;;;;;100.32;37.90;;;;;;;4.85;100.00;102717.69;5055539;28;20217;-42
2022/01/29 02:21:55;;;;;;;101.55;37.40;;;;;;;4.83;100.00;102719.53;5054494;28;20177;-44
2022/01/29 02:24:21;;;;;;;90.75;37.45;;;;;;;4.82;100.00;102706.38;5056506;28;20411;-45
2022/01/29 02:26:46;;;;;;;114.00;43.50;;;;;;;4.83;100.00;102711.59;5055055;28;20465;-42
2022/01/29 02:29:11;;;;;;;98.10;37.05;;;;;;;4.82;100.00;102714.31;5055061;28;20038;-44
2022/01/29 02:31:50;;;;;;;105.50;41.28;;;;;;;4.81;100.00;102705.53;5055369;28;20017;-46
2022/01/29 02:34:16;;;;;;;93.75;35.30;;;;;;;4.81;100.00;102702.88;5054634;28;20629;-44
2022/01/29 02:36:42;;;;;;;101.88;39.17;;;;;;;4.81;100.00;102699.38;5055313;28;20028;-43
2022/01/29 02:39:10;;;;;;;108.10;38.67;;;;;;;4.81;100.00;102692.28;5055340;28;20025;-42
2022/01/29 02:41:38;;;;;;;99.82;37.00;;;;;;;4.81;100.00;102692.28;5054666;28;20032;-45
2022/01/29 02:44:05;;;;;;;102.55;36.17;;;;;;;4.83;100.00;102682.47;5055225;28;20399;-44
2022/01/29 02:46:47;;;;;;;120.97;42.13;;;;;;;4.82;100.00;102683.44;5051160;28;20056;-43
2022/01/29 02:49:14;;;;;;;113.35;41.30;;;;;;;4.84;100.00;102678.91;5054643;28;20961;-46
2022/01/29 02:51:44;;;;;;;112.45;40.83;;;;;;;4.83;100.00;102682.47;5042748;28;20025;-44
2022/01/29 02:54:10;;;;;;;120.70;42.03;;;;;;;4.84;100.00;102686.84;5046786;28;20475;-43
2022/01/29 02:56:35;;;;;;;115.70;40.70;;;;;;;4.83;100.00;102677.19;5054535;28;20104;-44
2022/01/29 02:59:00;;;;;;;111.63;38.38;;;;;;;4.83;100.00;102679.81;5053573;28;20043;-45
2022/01/29 03:01:26;;;;;;;111.80;37.60;;;;;;;4.84;100.00;102675.41;5054679;28;20055;-42
2022/01/29 03:03:51;;;;;;;129.90;46.53;;;;;;;4.84;100.00;102676.25;5055233;28;20131;-44
2022/01/29 03:06:16;;;;;;;115.28;38.72;;;;;;;4.85;100.00;102669.16;5055497;28;20078;-46
2022/01/29 03:08:41;;;;;;;113.72;39.10;;;;;;;4.86;100.00;102662.94;5055528;28;20033;-43
2022/01/29 03:11:07;;;;;;;119.30;42.97;;;;;;;4.87;100.00;102672.59;5054686;28;20357;-45
2022/01/29 03:13:32;;;;;;;111.80;37.72;;;;;;;4.84;100.00;102657.72;5036332;28;20043;-43
2022/01/29 03:15:57;;;;;;;115.50;40.30;;;;;;;4.87;100.00;102656.69;5053807;28;20040;-44
2022/01/29 03:18:23;;;;;;;109.85;39.38;;;;;;;4.88;100.00;102657.56;5054378;28;20036;-43
2022/01/29 03:20:49;;;;;;;109.80;39.60;;;;;;;4.89;100.00;102646.03;5054690;28;20048;-45
2022/01/29 03:23:14;;;;;;;94.10;34.55;;;;;;;4.91;100.00;102641.53;5055080;28;20028;-43
2022/01/29 03:25:39;;;;;;;115.40;39.45;;;;;;;4.90;100.00;102635.38;5055244;28;20085;-43
2022/01/29 03:28:05;;;;;;;117.78;39.38;;;;;;;4.92;100.00;102635.28;5054505;28;20499;-43
2022/01/29 03:30:30;;;;;;;112.00;37.70;;;;;;;4.92;100.00;102635.28;5052756;28;20311;-44
2022/01/29 03:32:56;;;;;;;113.95;40.78;;;;;;;4.95;100.00;102638.63;5054342;28;20140;-46
2022/01/29 03:35:22;;;;;;;125.40;42.33;;;;;;;4.94;100.00;102630.75;5055257;28;20550;-45
2022/01/29 03:37:47;;;;;;;110.00;36.80;;;;;;;4.93;100.00;102624.63;5054553;28;20090;-46
2022/01/29 03:40:12;;;;;;;125.40;40.05;;;;;;;4.93;100.00;102629.06;5055602;28;20115;-46
2022/01/29 03:42:59;;;;;;;120.15;39.88;;;;;;;4.97;100.00;102622.66;5053871;28;20032;-44
2022/01/29 03:45:23;;;;;;;117.00;38.70;;;;;;;4.97;100.00;102617.38;5053672;28;20519;-45
2022/01/29 03:47:48;;;;;;;111.22;39.53;;;;;;;4.98;100.00;102614.63;5034902;28;20029;-44
2022/01/29 03:50:13;;;;;;;127.90;41.65;;;;;;;4.98;100.00;102617.28;5035016;28;20461;-43
2022/01/29 03:52:39;;;;;;;138.80;42.72;;;;;;;4.97;100.00;102612.94;5034560;28;20355;-46
2022/01/29 03:55:05;;;;;;;129.05;41.03;;;;;;;5.00;100.00;102618.06;5035015;28;20024;-44
2022/01/29 03:57:30;;;;;;;137.73;41.58;;;;;;;5.02;100.00;102615.31;5032732;28;20496;-43
2022/01/29 03:59:56;;;;;;;138.75;41.40;;;;;;;5.00;100.00;102611.91;5015138;28;20108;-48
2022/01/29 04:02:21;;;;;;;128.63;39.70;;;;;;;5.03;100.00;102615.25;5033501;28;20891;-47
2022/01/29 04:04:46;;;;;;;139.48;43.80;;;;;;;5.07;100.00;102615.09;5045825;28;20028;-43
2022/01/29 04:07:12;;;;;;;140.70;43.03;;;;;;;5.08;100.00;102615.03;5054493;28;20111;-42
2022/01/29 04:09:39;;;;;;;131.00;39.28;;;;;;;5.08;100.00;102615.03;5054226;28;20039;-46
2022/01/29 04:12:04;;;;;;;134.02;40.88;;;;;;;5.10;100.00;102607.84;5052711;28;20111;-44
2022/01/29 04:14:36;;;;;;;129.98;40.25;;;;;;;5.11;100.00;102606.91;5052525;28;20073;-47
2022/01/29 04:17:02;;;;;;;131.18;41.72;;;;;;;5.15;100.00;102612.91;5053870;28;20496;-45
2022/01/29 04:19:27;;;;;;;139.85;45.38;;;;;;;5.14;100.00;102600.59;5054358;28;20061;-44
2022/01/29 04:21:52;;;;;;;137.68;44.15;;;;;;;5.18;100.00;102591.56;5054070;28;20083;-42
2022/01/29 04:24:18;;;;;;;123.65;39.30;;;;;;;5.18;100.00;102599.50;5054068;28;20028;-42
2022/01/29 04:26:44;;;;;;;115.20;36.60;;;;;;;5.22;100.00;102599.22;5052956;28;20152;-45
2022/01/29 04:29:10;;;;;;;122.95;39.92;;;;;;;5.24;100.00;102596.50;5053033;28;20105;-45
2022/01/29 04:31:58;;;;;;;127.68;39.55;;;;;;;5.27;100.00;102571.66;5054198;28;20124;-45
2022/01/29 04:34:24;;;;;;;122.55;40.33;;;;;;;5.31;100.00;102581.13;5054035;28;20025;-45
2022/01/29 04:36:49;;;;;;;124.70;41.95;;;;;;;5.36;100.00;102576.44;5053251;28;20070;-45
2022/01/29 04:39:15;;;;;;;121.45;39.30;;;;;;;5.38;100.00;102582.50;5053519;28;20619;-45
2022/01/29 04:41:40;;;;;;;119.75;37.45;;;;;;;5.41;100.00;102580.56;5053464;28;20031;-45
2022/01/29 04:44:05;;;;;;;112.07;36.17;;;;;;;5.47;100.00;102578.50;5034190;28;20024;-47
2022/01/29 04:46:31;;;;;;;105.18;34.35;;;;;;;5.48;100.00;102569.59;5052917;28;20020;-45
2022/01/29 04:48:56;;;;;;;111.72;35.70;;;;;;;5.50;100.00;102571.25;5053051;28;20028;-44
2022/01/29 04:51:22;;;;;;;110.85;35.50;;;;;;;5.56;100.00;102570.03;5053110;28;20024;-42
2022/01/29 04:53:48;;;;;;;113.78;36.17;;;;;;;5.56;100.00;102562.94;5052110;28;20067;-46
2022/01/29 04:56:14;;;;;;;119.07;39.90;;;;;;;5.58;100.00;102571.66;5053187;28;20478;-44
2022/01/29 04:58:39;;;;;;;103.75;35.53;;;;;;;5.65;100.00;102558.94;5052793;28;20115;-43
2022/01/29 05:01:05;;;;;;;118.53;38.70;;;;;;;5.67;100.00;102553.50;5053013;28;20025;-44
2022/01/29 05:03:31;;;;;;;115.18;36.80;;;;;;;5.72;100.00;102544.38;5052958;28;20021;-43
2022/01/29 05:05:57;;;;;;;117.75;37.85;;;;;;;5.75;100.00;102548.63;5053178;28;21225;-43
2022/01/29 05:08:23;;;;;;;111.75;37.38;;;;;;;5.75;100.00;102549.50;5050381;28;20444;-46
2022/01/29 05:10:48;;;;;;;118.13;37.47;;;;;;;5.82;100.00;102551.78;5052570;28;20033;-44
2022/01/29 05:13:19;;;;;;;116.38;37.30;;;;;;;5.82;100.00;102547.34;5052685;28;20106;-43
2022/01/29 05:15:59;;;;;;;119.00;39.13;;;;;;;5.80;100.00;102538.63;5050606;28;20023;-44
2022/01/29 05:26:55;;;;;;;129.43;40.72;;;;;;;5.91;100.00;102546.81;5051636;28;20328;-45
2022/01/29 05:29:20;;;;;;;130.93;43.42;;;;;;;5.89;100.00;102535.47;5052019;28;20025;-46
2022/01/29 05:31:45;;;;;;;130.75;43.28;;;;;;;5.94;100.00;102543.13;5052899;28;20762;-45
2022/01/29 05:34:11;;;;;;;123.15;39.25;;;;;;;5.95;100.00;102542.19;5052980;28;20042;-43
2022/01/29 05:36:36;;;;;;;130.43;41.10;;;;;;;5.96;100.00;102534.19;5052509;28;20414;-44
2022/01/29 05:39:03;;;;;;;106.88;35.55;;;;;;;5.97;100.00;102527.94;5053413;28;20028;-44
2022/01/29 05:41:28;;;;;;;116.53;39.42;;;;;;;6.00;100.00;102534.84;5053295;28;20176;-43
2022/01/29 05:43:54;;;;;;;121.13;39.22;;;;;;;6.01;100.00;102525.97;5055635;28;20147;-44
2022/01/29 05:46:20;;;;;;;134.10;41.58;;;;;;;6.02;100.00;102532.13;5056814;28;20035;-45
2022/01/29 05:48:45;;;;;;;120.30;41.58;;;;;;;6.06;100.00;102530.97;5056659;28;20037;-45
2022/01/29 05:51:11;;;;;;;121.32;39.80;;;;;;;6.07;100.00;102532.69;5055984;28;20043;-48
2022/01/29 05:53:36;;;;;;;126.10;40.40;;;;;;;6.05;100.00;102524.81;5056992;28;20247;-44
2022/01/29 05:56:02;;;;;;;141.88;45.22;;;;;;;6.10;100.00;102525.41;5056329;28;20020;-46
2022/01/29 05:58:27;;;;;;;133.15;42.65;;;;;;;6.13;100.00;102521.75;5055553;28;20143;-45
2022/01/29 06:00:53;;;;;;;136.27;44.00;;;;;;;6.13;100.00;102519.94;5056339;28;20032;-46
2022/01/29 06:03:18;;;;;;;128.18;44.00;;;;;;;6.15;100.00;102517.19;5056603;28;20021;-45
2022/01/29 06:05:44;;;;;;;120.68;40.65;;;;;;;6.16;100.00;102516.22;5056614;28;20033;-43
2022/01/29 06:08:09;;;;;;;132.13;45.03;;;;;;;6.17;100.00;102510.00;5038509;28;20029;-44
2022/01/29 06:10:35;;;;;;;134.27;44.85;;;;;;;6.22;100.00;102515.88;5056402;28;20102;-43
2022/01/29 06:13:02;;;;;;;136.25;45.88;;;;;;;6.25;100.00;102515.69;5054678;28;20085;-45
2022/01/29 06:15:28;;;;;;;125.82;44.50;;;;;;;6.28;100.00;102506.69;5056644;28;20016;-44
2022/01/29 06:17:54;;;;;;;124.05;41.25;;;;;;;6.31;100.00;102498.53;5056087;28;20395;-44
2022/01/29 06:20:20;;;;;;;130.68;45.50;;;;;;;6.34;100.00;102504.50;5056061;28;20388;-44
2022/01/29 06:22:45;;;;;;;123.00;41.83;;;;;;;6.35;100.00;102511.53;5054783;28;20024;-45
2022/01/29 06:25:10;;;;;;;129.18;43.17;;;;;;;6.35;100.00;102492.97;5056988;28;20054;-43
2022/01/29 06:27:36;;;;;;;123.00;46.58;;;;;;;6.37;100.00;102500.84;5055264;28;20036;-46
2022/01/29 06:30:02;;;;;;;132.38;46.00;;;;;;;6.43;100.00;102497.81;5055773;28;20024;-45
2022/01/29 06:32:28;;;;;;;132.00;45.17;;;;;;;6.46;100.00;102505.56;5055614;28;20105;-43
2022/01/29 06:34:53;;;;;;;124.28;45.20;;;;;;;6.48;100.00;102497.53;5056453;28;20024;-47
2022/01/29 06:37:18;;;;;;;112.45;39.13;;;;;;;6.50;100.00;102495.63;5054788;28;20398;-44
2022/01/29 06:39:44;;;;;;;130.20;46.90;;;;;;;6.52;100.00;102489.28;5056850;28;20103;-44
2022/01/29 06:42:09;;;;;;;118.88;45.67;;;;;;;6.53;100.00;102491.00;5037167;28;20037;-45
2022/01/29 06:44:34;;;;;;;108.22;41.00;;;;;;;6.52;100.00;102483.97;5055440;28;20025;-46
2022/01/29 06:46:59;;;;;;;114.18;40.63;;;;;;;6.56;100.00;102484.63;5055340;28;20031;-43
2022/01/29 06:49:25;;;;;;;110.47;40.50;;;;;;;6.57;100.00;102477.53;5056143;28;20056;-44
2022/01/29 06:51:52;;;;;;;104.78;40.05;;;;;;;6.59;100.00;102479.16;5054635;28;20028;-44
2022/01/29 06:54:18;;;;;;;101.45;39.75;;;;;;;6.62;100.00;102478.97;5055266;28;20028;-46
2022/01/29 06:56:43;;;;;;;115.95;42.70;;;;;;;6.65;100.00;102472.59;5055081;28;20077;-47
2022/01/29 06:59:08;;;;;;;107.00;39.10;;;;;;;6.69;100.00;102472.31;5054908;28;20052;-45
2022/01/29 07:01:34;;;;;;;106.10;44.28;;;;;;;6.71;100.00;102457.13;5055791;28;20525;-44
2022/01/29 07:03:59;;;;;;;97.32;39.88;;;;;;;6.76;100.00;102466.63;5055238;28;20101;-45
2022/01/29 07:06:24;;;;;;;100.68;38.63;;;;;;;6.75;100.00;102460.44;5055208;28;20104;-48
2022/01/29 07:08:49;;;;;;;100.28;37.42;;;;;;;6.80;100.00;102461.00;5054284;28;20465;-45
2022/01/29 07:11:18;;;;;;;108.55;42.70;;;;;;;6.81;100.00;102465.38;5036307;28;20016;-45
2022/01/29 07:13:44;;;;;;;112.82;43.20;;;;;;;6.83;100.00;102462.63;5037363;28;20077;-44
2022/01/29 07:16:09;;;;;;;93.50;35.55;;;;;;;6.81;100.00;102462.72;5055385;28;20466;-44
2022/01/29 07:18:34;;;;;;;109.07;39.45;;;;;;;6.82;100.00;102461.78;5055095;28;20099;-44
2022/01/29 07:21:00;;;;;;;107.07;39.22;;;;;;;6.80;100.00;102463.66;5054816;28;20520;-44
2022/01/29 07:23:25;;;;;;;107.47;39.80;;;;;;;6.79;100.00;102456.66;5054316;28;20045;-43
2022/01/29 07:25:50;;;;;;;108.90;39.17;;;;;;;6.81;100.00;102460.06;5053975;28;20024;-44
2022/01/29 07:28:15;;;;;;;119.63;43.30;;;;;;;6.76;100.00;102450.69;5054208;28;20033;-44
2022/01/29 07:30:41;;;;;;;108.00;39.17;;;;;;;6.79;100.00;102455.78;5055848;28;20328;-44
2022/01/29 07:33:06;;;;;;;108.07;39.17;;;;;;;6.78;100.00;102454.09;5054902;28;20036;-44
2022/01/29 07:35:31;;;;;;;113.78;40.63;;;;;;;6.80;100.00;102460.16;5054994;28;20154;-45
2022/01/29 07:37:57;;;;;;;104.40;37.45;;;;;;;6.81;100.00;102456.56;5053099;28;20526;-46
2022/01/29 07:40:22;;;;;;;104.13;37.97;;;;;;;6.80;100.00;102454.84;5053605;28;20067;-44
2022/01/29 07:42:47;;;;;;;111.13;40.03;;;;;;;6.85;100.00;102461.56;5052303;28;20099;-45
2022/01/29 07:45:12;;;;;;;114.40;38.72;;;;;;;6.89;100.00;102452.47;5055191;28;20067;-46
2022/01/29 07:47:38;;;;;;;109.40;39.28;;;;;;;6.89;100.00;102449.81;5053763;28;20047;-45
2022/01/29 07:50:04;;;;;;;108.63;38.75;;;;;;;6.95;100.00;102453.03;5036899;28;20055;-44
2022/01/29 07:52:31;;;;;;;108.80;41.78;;;;;;;6.97;100.00;102435.19;5053579;28;20088;-45
2022/01/29 07:54:56;;;;;;;106.45;38.28;;;;;;;6.98;100.00;102445.72;5053125;28;20448;-45
2022/01/29 07:57:22;;;;;;;113.75;40.50;;;;;;;7.01;100.00;102440.22;5053154;28;20111;-45
2022/01/29 07:59:48;;;;;;;106.82;39.10;;;;;;;7.02;100.00;102438.41;5052634;28;20028;-44
2022/01/29 08:02:13;;;;;;;104.18;38.97;;;;;;;7.03;100.00;102434.81;5053895;28;20037;-44
2022/01/29 08:04:38;;;;;;;113.85;39.20;;;;;;;7.04;100.00;102437.38;5053626;28;20111;-43
2022/01/29 08:07:03;;;;;;;110.43;38.63;;;;;;;7.06;100.00;102442.56;5053760;28;20392;-43
2022/01/29 08:09:29;;;;;;;110.25;38.92;;;;;;;7.08;100.00;102430.06;5053471;28;20085;-44
2022/01/29 08:11:54;;;;;;;124.55;43.78;;;;;;;7.08;100.00;102433.56;5052441;28;20025;-46
2022/01/29 08:14:19;;;;;;;123.63;42.00;;;;;;;7.11;100.00;102427.16;5053297;28;20486;-46
2022/01/29 08:16:44;;;;;;;118.10;40.17;;;;;;;7.12;100.00;102428.03;5053515;28;20036;-46
2022/01/29 08:19:10;;;;;;;115.97;41.13;;;;;;;7.12;100.00;102410.28;5035495;28;20026;-45
2022/01/29 08:21:38;;;;;;;119.13;44.50;;;;;;;7.16;100.00;102413.59;5052118;28;20083;-45
2022/01/29 08:24:04;;;;;;;105.63;38.30;;;;;;;7.19;100.00;102416.06;5053910;28;20043;-45
2022/01/29 08:26:29;;;;;;;113.63;39.67;;;;;;;7.21;100.00;102411.50;5059917;28;20016;-44
2022/01/29 08:28:55;;;;;;;110.03;39.28;;;;;;;7.24;100.00;102400.66;5072929;28;20438;-47
2022/01/29 08:31:20;;;;;;;106.53;39.80;;;;;;;7.25;100.00;102403.22;5058876;28;20476;-44
2022/01/29 08:33:45;;;;;;;101.80;39.92;;;;;;;7.29;100.00;102411.84;5053630;28;20196;-45
2022/01/29 08:36:11;;;;;;;109.15;41.38;;;;;;;7.32;100.00;102402.84;5054506;28;20098;-44
2022/01/29 08:38:36;;;;;;;102.60;40.75;;;;;;;7.37;100.00;102398.06;5054299;28;20404;-45
2022/01/29 08:41:03;;;;;;;95.95;39.40;;;;;;;7.40;100.00;102398.72;5053717;28;20107;-43
2022/01/29 08:43:28;;;;;;;100.10;40.97;;;;;;;7.42;100.00;102399.44;5052938;28;20078;-46
2022/01/29 08:45:55;;;;;;;82.72;33.90;;;;;;;7.46;100.00;102413.38;5053623;28;20408;-43
2022/01/29 08:48:21;;;;;;;99.50;41.45;;;;;;;7.50;100.00;102406.06;5053212;28;20399;-45
2022/01/29 08:50:46;;;;;;;84.47;37.08;;;;;;;7.50;100.00;102398.09;5053804;28;20119;-45
2022/01/29 08:53:12;;;;;;;84.47;36.58;;;;;;;7.55;100.00;102398.63;5064219;28;20031;-44
2022/01/29 08:55:37;;;;;;;90.75;38.42;;;;;;;7.58;100.00;102387.78;5063404;28;20170;-44
2022/01/29 08:58:08;;;;;;;92.78;43.53;;;;;;;7.59;100.00;102397.47;5071602;28;20509;-45
2022/01/29 09:00:37;;;;;;;85.15;39.67;;;;;;;7.60;100.00;102385.88;5074048;28;20024;-45
2022/01/29 09:03:04;;;;;;;86.90;37.25;;;;;;;7.60;100.00;102378.78;5070024;28;20009;-44
2022/01/29 09:05:29;;;;;;;79.40;34.88;;;;;;;7.62;100.00;102375.97;5058852;28;20432;-43
2022/01/29 09:07:54;;;;;;;81.88;36.65;;;;;;;7.65;100.00;102381.97;5054234;28;20021;-43
2022/01/29 09:10:20;;;;;;;84.88;36.17;;;;;;;7.68;100.00;102383.56;5053915;28;20052;-45
2022/01/29 09:12:45;;;;;;;80.13;38.78;;;;;;;7.73;100.00;102377.94;5052272;28;20107;-44
2022/01/29 09:15:11;;;;;;;73.28;34.90;;;;;;;7.75;100.00;102379.50;5062750;28;20155;-43
2022/01/29 09:17:39;;;;;;;73.60;37.50;;;;;;;7.80;100.00;102374.72;5056708;28;20294;-46
2022/01/29 09:20:06;;;;;;;69.50;31.67;;;;;;;7.83;100.00;102366.53;5058315;28;20097;-49
2022/01/29 09:22:31;;;;;;;80.50;35.65;;;;;;;7.87;100.00;102364.53;5067391;28;20031;-44
2022/01/29 09:24:57;;;;;;;77.07;36.13;;;;;;;7.89;100.00;102372.41;5057972;28;20033;-46
2022/01/29 09:27:22;;;;;;;76.22;38.08;;;;;;;7.95;100.00;102366.66;5056117;28;20079;-45
2022/01/29 09:29:47;;;;;;;79.18;37.58;;;;;;;7.97;100.00;102370.06;5062558;28;20023;-44
2022/01/29 09:32:12;;;;;;;69.88;33.58;;;;;;;8.00;100.00;102372.50;5067368;28;20338;-44
2022/01/29 09:34:38;;;;;;;68.50;34.10;;;;;;;7.97;100.00;102360.25;5078469;28;20391;-43
2022/01/29 09:37:03;;;;;;;70.18;34.08;;;;;;;8.01;100.00;102371.53;5074871;28;20124;-49
2022/01/29 09:39:28;;;;;;;67.82;30.98;;;;;;;8.02;100.00;102375.91;5065936;28;20056;-44
2022/01/29 09:41:55;;;;;;;65.05;29.58;;;;;;;8.05;100.00;102373.03;5058804;28;20119;-43
2022/01/29 09:44:21;;;;;;;59.88;34.10;;;;;;;8.09;100.00;102361.22;5060447;28;20740;-46
2022/01/29 09:46:50;;;;;;;66.78;31.77;;;;;;;8.13;100.00;102367.16;5073264;28;20440;-43
2022/01/29 09:49:17;;;;;;;60.70;29.92;;;;;;;8.13;100.00;102359.19;5076899;28;20027;-45
2022/01/29 09:51:43;;;;;;;59.88;29.52;;;;;;;8.13;100.00;102365.38;5077332;28;20097;-45
2022/01/29 09:54:08;;;;;;;59.50;29.27;;;;;;;8.14;100.00;102374.22;5077234;28;20020;-45
2022/01/29 09:56:33;;;;;;;55.22;27.15;;;;;;;8.16;100.00;102375.81;5076913;28;20028;-47
2022/01/29 09:58:59;;;;;;;56.90;27.38;;;;;;;8.21;100.00;102381.66;5074011;28;20085;-45
2022/01/29 10:01:24;;;;;;;56.88;26.98;;;;;;;8.24;100.00;102374.41;5037574;28;20036;-47
2022/01/29 10:04:04;;;;;;;52.92;25.15;;;;;;;8.29;100.00;102374.94;5036393;28;20031;-44
2022/01/29 10:06:30;;;;;;;51.67;25.73;;;;;;;8.34;100.00;102378.13;5056325;28;20135;-46
2022/01/29 10:08:56;;;;;;;48.03;22.05;;;;;;;8.41;100.00;102374.91;5067774;28;20136;-46
2022/01/29 10:11:25;;;;;;;43.03;21.02;;;;;;;8.48;100.00;102363.88;5036141;28;20035;-45
2022/01/29 10:13:52;;;;;;;43.55;21.98;;;;;;;8.53;100.00;102372.38;5035931;28;20020;-45
2022/01/29 10:16:19;;;;;;;40.55;21.00;;;;;;;8.56;100.00;102367.66;5018757;28;20777;-45
2022/01/29 10:18:48;;;;;;;38.78;19.75;;;;;;;8.62;100.00;102366.38;5036112;28;20257;-43
2022/01/29 10:21:24;;;;;;;37.92;20.33;;;;;;;8.68;100.00;102357.94;5036946;28;20508;-44
2022/01/29 10:24:04;;;;;;;36.63;19.17;;;;;;;8.74;100.00;102338.88;5036562;28;20052;-44
2022/01/29 10:26:38;;;;;;;30.90;15.65;;;;;;;8.85;100.00;102338.06;5055611;28;20028;-44
2022/01/29 10:29:10;;;;;;;29.50;17.33;;;;;;;8.92;100.00;102349.97;5055012;28;20152;-42
2022/01/29 10:31:47;;;;;;;31.25;15.55;;;;;;;9.03;100.00;102345.66;5055842;28;20078;-46
2022/01/29 10:34:19;;;;;;;28.00;15.27;;;;;;;9.10;100.00;102315.78;5056495;28;20067;-45
2022/01/29 10:36:45;;;;;;;20.63;12.73;;;;;;;9.19;100.00;102316.06;5056422;28;20139;-45
2022/01/29 10:39:11;;;;;;;23.48;11.38;;;;;;;9.28;100.00;102312.69;5062012;28;20031;-42
2022/01/29 10:41:37;;;;;;;24.95;14.07;;;;;;;9.31;100.00;102328.44;5064699;28;20118;-43
2022/01/29 10:44:10;;;;;;;24.33;12.45;;;;;;;9.33;100.00;102326.50;5067491;28;20115;-44
2022/01/29 10:46:42;;;;;;;16.20;9.75;;;;;;;9.35;100.00;102324.56;5067611;28;20082;-49
2022/01/29 10:49:14;;;;;;;21.90;11.85;;;;;;;9.39;100.00;102315.38;5064600;28;20263;-44
2022/01/29 10:51:40;;;;;;;21.77;12.40;;;;;;;9.43;100.00;102319.50;5062142;28;20542;-45
2022/01/29 10:54:19;;;;;;;24.17;10.88;;;;;;;9.47;100.00;102322.78;5063589;28;20107;-43
2022/01/29 10:56:56;;;;;;;17.02;10.15;;;;;;;9.52;100.00;102323.28;5053193;28;20115;-44
2022/01/29 10:59:22;;;;;;;20.08;11.27;;;;;;;9.51;100.00;102332.28;5053395;28;20543;-45
2022/01/29 11:02:00;;;;;;;17.65;9.43;;;;;;;9.51;100.00;102330.44;5060654;28;20099;-45
2022/01/29 11:04:28;;;;;;;15.30;8.43;;;;;;;9.64;100.00;102313.50;5064230;28;20032;-45
2022/01/29 11:06:55;;;;;;;15.98;7.85;;;;;;;9.67;100.00;102311.47;5060794;28;20103;-44
2022/01/29 11:09:21;;;;;;;9.45;6.13;;;;;;;9.70;100.00;102305.88;5064910;28;20111;-45
2022/01/29 11:11:47;;;;;;;11.55;6.50;;;;;;;9.75;100.00;102302.84;5064179;28;20040;-45